createdAt,value
2023-07-23T00:00:25.195Z,99717.97
2023-07-23T00:05:26.428Z,99705.03
2023-07-23T00:10:27.818Z,99699.59
2023-07-23T00:15:29.018Z,99694.13
2023-07-23T00:20:30.257Z,99679.66
2023-07-23T00:25:31.492Z,99670.50
2023-07-23T00:30:32.668Z,99661.75
2023-07-23T00:35:33.862Z,99653.78
2023-07-23T00:40:35.086Z,99649.25
2023-07-23T00:45:36.442Z,99634.44
2023-07-23T00:50:37.697Z,99637.50
2023-07-23T00:55:38.890Z,99630.31
2023-07-23T01:00:40.092Z,99622.34
2023-07-23T01:05:41.300Z,99619.34
2023-07-23T01:10:42.519Z,99612.91
2023-07-23T01:15:43.738Z,99607.66
2023-07-23T01:20:44.974Z,99603.88
2023-07-23T01:25:46.165Z,99590.94
2023-07-23T01:30:47.372Z,99594.72
2023-07-23T01:35:48.559Z,99581.44
2023-07-23T01:40:49.737Z,99568.88
2023-07-23T01:45:50.913Z,99568.09
2023-07-23T01:50:52.087Z,99562.00
2023-07-23T01:55:53.295Z,99554.41
2023-07-23T02:00:54.509Z,99549.09
2023-07-23T02:05:55.741Z,99547.63
2023-07-23T02:10:57.018Z,99546.06
2023-07-23T02:15:58.326Z,99531.69
2023-07-23T02:20:59.603Z,99526.44
2023-07-23T02:26:00.809Z,99521.88
2023-07-23T02:31:02.096Z,99518.88
2023-07-23T02:36:03.341Z,99518.94
2023-07-23T02:41:04.532Z,99504.81
2023-07-23T02:46:05.776Z,99499.88
2023-07-23T02:51:07.001Z,99502.88
2023-07-23T02:56:08.257Z,99500.63
2023-07-23T03:01:10.335Z,99496.44
2023-07-23T03:06:11.523Z,99501.47
2023-07-23T03:11:12.698Z,99486.22
2023-07-23T03:16:14.105Z,99487.34
2023-07-23T03:21:15.514Z,99492.25
2023-07-23T03:26:16.687Z,99493.38
2023-07-23T03:31:17.947Z,99488.44
2023-07-23T03:36:19.303Z,99490.66
2023-07-23T03:41:20.478Z,99500.09
2023-07-23T03:46:21.679Z,99501.94
2023-07-23T03:51:22.902Z,99499.97
2023-07-23T03:56:24.089Z,99498.38
2023-07-23T04:01:25.306Z,99500.97
2023-07-23T04:06:26.555Z,99501.31
2023-07-23T04:11:28.087Z,99500.97
2023-07-23T04:16:29.643Z,99503.34
2023-07-23T04:21:31.002Z,99485.56
2023-07-23T04:26:32.334Z,99483.69
2023-07-23T04:31:33.661Z,99485.66
2023-07-23T04:36:35.017Z,99481.91
2023-07-23T04:41:36.270Z,99488.44
2023-07-23T04:46:37.448Z,99491.53
2023-07-23T04:51:38.728Z,99487.84
2023-07-23T04:56:40.023Z,99490.19
2023-07-23T05:01:41.307Z,99490.19
2023-07-23T05:06:42.599Z,99491.78
2023-07-23T05:11:43.811Z,99493.84
2023-07-23T05:16:44.986Z,99485.22
2023-07-23T05:21:46.148Z,99481.53
2023-07-23T05:26:47.372Z,99483.22
2023-07-23T05:31:48.582Z,99484.91
2023-07-23T05:36:49.751Z,99476.59
2023-07-23T05:41:50.955Z,99485.50
2023-07-23T05:46:52.163Z,99479.22
2023-07-23T05:51:53.410Z,99469.16
2023-07-23T05:56:54.610Z,99475.88
2023-07-23T06:01:55.794Z,99482.97
2023-07-23T06:06:57.126Z,99470.25
2023-07-23T06:11:58.317Z,99482.94
2023-07-23T06:16:59.594Z,99478.88
2023-07-23T06:22:00.819Z,99482.38
2023-07-23T06:27:02.103Z,99491.56
2023-07-23T06:32:03.370Z,99483.69
2023-07-23T06:37:04.864Z,99482.16
2023-07-23T06:42:06.032Z,99481.47
2023-07-23T06:47:07.318Z,99478.06
2023-07-23T06:52:08.820Z,99473.19
2023-07-23T06:57:10.027Z,99482.75
2023-07-23T07:02:11.266Z,99477.41
2023-07-23T07:07:12.456Z,99486.22
2023-07-23T07:12:13.779Z,99480.09
2023-07-23T07:17:14.994Z,99483.69
2023-07-23T07:22:17.096Z,99488.06
2023-07-23T07:27:18.344Z,99496.56
2023-07-23T07:32:19.545Z,99513.16
2023-07-23T07:37:20.995Z,99505.44
2023-07-23T07:42:22.195Z,99509.34
2023-07-23T07:47:23.411Z,99507.59
2023-07-23T07:52:24.598Z,99496.28
2023-07-23T07:57:25.771Z,99503.44
2023-07-23T08:02:26.984Z,99516.22
2023-07-23T08:07:28.204Z,99505.69
2023-07-23T08:12:29.391Z,99509.34
2023-07-23T08:17:30.637Z,99521.44
2023-07-23T08:22:31.970Z,99520.13
2023-07-23T08:27:33.176Z,99532.44
2023-07-23T08:32:34.534Z,99534.22
2023-07-23T08:37:35.773Z,99541.66
2023-07-23T08:42:37.049Z,99546.09
2023-07-23T08:47:38.349Z,99546.97
2023-07-23T08:52:39.553Z,99550.84
2023-07-23T08:57:40.746Z,99560.94
2023-07-23T09:02:41.943Z,99562.09
2023-07-23T09:07:43.148Z,99549.06
2023-07-23T09:12:44.346Z,99552.47
2023-07-23T09:17:45.604Z,99538.78
2023-07-23T09:22:46.797Z,99537.44
2023-07-23T09:27:47.983Z,99539.25
2023-07-23T09:32:50.041Z,99533.16
2023-07-23T09:37:51.316Z,99533.41
2023-07-23T09:42:52.490Z,99533.38
2023-07-23T09:48:05.959Z,99533.94
2023-07-23T09:53:16.752Z,99536.19
2023-07-23T09:58:18.013Z,99542.19
2023-07-23T10:03:19.408Z,99548.59
2023-07-23T10:08:20.720Z,99554.19
2023-07-23T10:13:21.907Z,99560.38
2023-07-23T10:18:23.104Z,99564.66
2023-07-23T10:23:24.329Z,99568.09
2023-07-23T10:28:25.732Z,99569.03
2023-07-23T10:33:26.989Z,99568.09
2023-07-23T10:38:30.985Z,99579.59
2023-07-23T10:43:32.229Z,99569.63
2023-07-23T10:48:33.426Z,99568.53
2023-07-23T10:53:34.657Z,99558.38
2023-07-23T10:58:35.828Z,99557.41
2023-07-23T11:03:37.064Z,99560.88
2023-07-23T11:08:38.277Z,99561.69
2023-07-23T11:13:39.483Z,99557.97
2023-07-23T11:18:40.754Z,99555.91
2023-07-23T11:23:42.525Z,99562.63
2023-07-23T11:28:43.726Z,99571.63
2023-07-23T11:33:44.932Z,99570.66
2023-07-23T11:38:46.192Z,99581.00
2023-07-23T11:43:47.409Z,99572.31
2023-07-23T11:48:48.599Z,99575.75
2023-07-23T11:53:49.792Z,99569.34
2023-07-23T11:58:50.992Z,99566.13
2023-07-23T12:03:52.756Z,99569.84
2023-07-23T12:08:53.970Z,99556.31
2023-07-23T12:13:55.163Z,99549.69
2023-07-23T12:18:56.503Z,99547.34
2023-07-23T12:23:57.749Z,99540.78
2023-07-23T12:28:58.942Z,99541.16
2023-07-23T12:34:00.270Z,99540.06
2023-07-23T12:39:01.537Z,99543.63
2023-07-23T12:44:02.823Z,99531.13
2023-07-23T12:49:04.038Z,99520.56
2023-07-23T12:54:05.339Z,99529.91
2023-07-23T12:59:06.644Z,99531.25
2023-07-23T13:04:07.932Z,99523.25
2023-07-23T13:09:10.484Z,99524.38
2023-07-23T13:14:11.878Z,99519.06
2023-07-23T13:19:13.043Z,99519.06
2023-07-23T13:24:14.255Z,99522.19
2023-07-23T13:29:15.464Z,99523.88
2023-07-23T13:34:16.662Z,99514.19
2023-07-23T13:39:17.849Z,99506.25
2023-07-23T13:44:19.101Z,99512.34
2023-07-23T13:49:20.299Z,99505.47
2023-07-23T13:54:21.502Z,99503.19
2023-07-23T13:59:22.701Z,99504.34
2023-07-23T14:04:23.881Z,99496.13
2023-07-23T14:09:25.377Z,99504.13
2023-07-23T14:14:26.579Z,99497.66
2023-07-23T14:19:27.812Z,99498.78
2023-07-23T14:24:29.056Z,99488.84
2023-07-23T14:29:30.321Z,99488.47
2023-07-23T14:34:31.598Z,99490.34
2023-07-23T14:39:32.787Z,99495.31
2023-07-23T14:44:33.995Z,99491.50
2023-07-23T14:49:37.332Z,99490.75
2023-07-23T14:54:40.061Z,99493.81
2023-07-23T14:59:41.394Z,99498.34
2023-07-23T15:04:42.671Z,99495.66
2023-07-23T15:09:43.860Z,99495.69
2023-07-23T15:14:45.044Z,99496.47
2023-07-23T15:19:46.230Z,99483.16
2023-07-23T15:24:47.455Z,99494.97
2023-07-23T15:29:48.633Z,99477.75
2023-07-23T15:34:49.855Z,99477.78
2023-07-23T15:39:51.829Z,99471.25
2023-07-23T15:44:53.031Z,99470.88
2023-07-23T15:49:54.232Z,99477.69
2023-07-23T15:54:56.458Z,99467.66
2023-07-23T15:59:58.039Z,99460.72
2023-07-23T16:04:59.230Z,99467.59
2023-07-23T16:10:00.498Z,99451.50
2023-07-23T16:15:02.816Z,99454.13
2023-07-23T16:20:07.103Z,99447.16
2023-07-23T16:25:08.315Z,99445.72
2023-07-23T16:30:09.912Z,99437.03
2023-07-23T16:35:11.388Z,99433.28
2023-07-23T16:40:12.618Z,99427.22
2023-07-23T16:45:14.057Z,99425.75
2023-07-23T16:50:15.473Z,99423.09
2023-07-23T16:55:19.765Z,99418.94
2023-07-23T17:00:22.332Z,99415.09
2023-07-23T17:05:24.194Z,99407.47
2023-07-23T17:10:26.397Z,99402.88
2023-07-23T17:15:27.615Z,99408.59
2023-07-23T17:20:28.822Z,99403.66
2023-07-23T17:25:30.028Z,99397.53
2023-07-23T17:30:31.387Z,99408.25
2023-07-23T17:35:32.637Z,99412.47
2023-07-23T17:40:33.834Z,99419.72
2023-07-23T17:45:35.070Z,99406.00
2023-07-23T17:50:36.243Z,99412.47
2023-07-23T17:55:37.438Z,99403.69
2023-07-23T18:00:38.638Z,99406.75
2023-07-23T18:05:39.828Z,99405.19
2023-07-23T18:10:41.007Z,99396.72
2023-07-23T18:15:42.207Z,99407.38
2023-07-23T18:20:43.431Z,99408.41
2023-07-23T18:25:58.681Z,99406.88
2023-07-23T18:31:10.224Z,99404.59
2023-07-23T18:36:13.672Z,99408.00
2023-07-23T18:41:14.968Z,99403.25
2023-07-23T18:46:16.204Z,99402.66
2023-07-23T18:51:17.622Z,99406.75
2023-07-23T18:56:18.822Z,99406.25
2023-07-23T19:01:20.023Z,99415.66
2023-07-23T19:06:21.266Z,99415.22
2023-07-23T19:11:22.452Z,99421.56
2023-07-23T19:16:23.673Z,99422.97
2023-07-23T19:21:24.858Z,99427.88
2023-07-23T19:26:26.067Z,99433.78
2023-07-23T19:31:27.333Z,99436.78
2023-07-23T19:36:28.783Z,99437.84
2023-07-23T19:41:30.336Z,99437.03
2023-07-23T19:46:31.769Z,99433.19
2023-07-23T19:51:33.681Z,99432.34
2023-07-23T19:56:34.865Z,99428.47
2023-07-23T20:01:36.131Z,99440.63
2023-07-23T20:06:37.539Z,99436.00
2023-07-23T20:11:38.765Z,99440.19
2023-07-23T20:16:39.985Z,99439.00
2023-07-23T20:21:44.459Z,99425.69
2023-07-23T20:26:46.238Z,99435.94
2023-07-23T20:31:47.409Z,99427.91
2023-07-23T20:36:48.718Z,99427.53
2023-07-23T20:41:49.938Z,99428.22
2023-07-23T20:46:51.186Z,99433.56
2023-07-23T20:51:52.449Z,99427.81
2023-07-23T20:56:53.658Z,99411.81
2023-07-23T21:01:54.914Z,99409.50
2023-07-23T21:06:56.138Z,99406.44
2023-07-23T21:11:57.352Z,99414.38
2023-07-23T21:16:58.634Z,99418.53
2023-07-23T21:21:59.860Z,99408.97
2023-07-23T21:27:02.098Z,99412.75
2023-07-23T21:32:03.291Z,99410.41
2023-07-23T21:37:04.550Z,99398.13
2023-07-23T21:42:06.658Z,99387.44
2023-07-23T21:47:07.881Z,99385.09
2023-07-23T21:52:09.052Z,99379.78
2023-07-23T21:57:10.300Z,99381.72
2023-07-23T22:02:11.548Z,99379.47
2023-07-23T22:07:13.238Z,99382.53
2023-07-23T22:12:14.426Z,99383.66
2023-07-23T22:17:15.648Z,99379.47
2023-07-23T22:22:19.916Z,99387.03
2023-07-23T22:27:22.059Z,99386.69
2023-07-23T22:32:23.285Z,99385.13
2023-07-23T22:37:24.499Z,99374.88
2023-07-23T22:42:25.701Z,99369.91
2023-07-23T22:47:26.959Z,99371.41
2023-07-23T22:52:28.208Z,99372.13
2023-07-23T22:57:29.412Z,99372.88
2023-07-23T23:02:30.620Z,99362.25
2023-07-23T23:07:31.852Z,99356.19
2023-07-23T23:12:33.042Z,99344.84
2023-07-23T23:17:34.267Z,99347.84
2023-07-23T23:22:35.509Z,99340.22
2023-07-23T23:27:36.766Z,99340.59
2023-07-23T23:32:38.026Z,99324.28
2023-07-23T23:37:39.433Z,99319.72
2023-07-23T23:42:40.672Z,99322.47
2023-07-23T23:47:41.898Z,99309.16
2023-07-23T23:52:43.125Z,99311.44
2023-07-23T23:57:44.355Z,99309.94
